Time;durP1;ratioP1;P1;durP2;ratioP2;P2;SDS_P1;SDS_P2;PMS_P1;PMS_P2;Temp;Humidity;BMP_temperature;BMP_pressure;BME280_temperature;BME280_humidity;BME280_pressure;Samples;Min_cycle;Max_cycle;Signal;HPM_P1;HPM_P2
2021/08/14 00:00:40;;;;;;;13.8;10.5;;;;;;;17.08;100;99042.58;;;;
2021/08/14 00:10:40;;;;;;;16.2;11.7;;;;;;;17.03;100;99038.16;;;;
2021/08/14 00:20:38;;;;;;;15;12.4;;;;;;;17;100;99036.13;;;;
2021/08/14 00:30:37;;;;;;;15.1;10.9;;;;;;;16.92;100;99023.39;;;;
2021/08/14 00:40:37;;;;;;;13.6;9.6;;;;;;;16.96;100;99016.14;;;;
2021/08/14 00:50:36;;;;;;;11.4;8.8;;;;;;;16.88;100;98997.97;;;;
2021/08/14 01:00:36;;;;;;;11.8;8.7;;;;;;;16.9;100;98995.69;;;;
2021/08/14 01:10:36;;;;;;;10.2;6.9;;;;;;;16.97;100;98987.76;;;;
2021/08/14 01:20:35;;;;;;;12.4;8.9;;;;;;;17.11;100;98990.94;;;;
2021/08/14 01:30:34;;;;;;;9.3;8.4;;;;;;;17.15;100;98971.98;;;;
2021/08/14 01:40:34;;;;;;;17.9;8.7;;;;;;;17.09;100;98981.53;;;;
2021/08/14 01:50:34;;;;;;;14;8.3;;;;;;;17.02;100;98982.1;;;;
2021/08/14 02:20:32;;;;;;;12.1;9.4;;;;;;;16.98;100;98950.44;;;;
2021/08/14 02:30:32;;;;;;;15.6;9;;;;;;;16.97;100;98952.36;;;;
2021/08/14 02:40:32;;;;;;;8.5;7.6;;;;;;;17.04;100;98947.14;;;;
2021/08/14 02:50:31;;;;;;;12.8;9.7;;;;;;;17.07;100;98960.1;;;;
2021/08/14 03:00:31;;;;;;;11.5;7.9;;;;;;;17.19;100;98947.59;;;;
2021/08/14 03:10:31;;;;;;;10;7.2;;;;;;;17.31;100;98955.77;;;;
2021/08/14 03:20:30;;;;;;;9.8;7;;;;;;;17.28;100;98953.73;;;;
2021/08/14 03:30:30;;;;;;;11;8.8;;;;;;;17.47;100;99003.77;;;;
2021/08/14 03:40:30;;;;;;;9.4;7.6;;;;;;;17.39;100;99020.25;;;;
2021/08/14 03:50:30;;;;;;;11.1;7.7;;;;;;;17.32;100;98982.65;;;;
2021/08/14 04:00:29;;;;;;;8.2;7.3;;;;;;;17.77;100;98954.45;;;;
2021/08/14 04:10:29;;;;;;;9.1;6.2;;;;;;;18.02;100;98943.09;;;;
2021/08/14 04:20:29;;;;;;;7.5;5.8;;;;;;;18.49;100;98962.31;;;;
2021/08/14 04:30:28;;;;;;;7.8;6.1;;;;;;;18.93;100;98975.92;;;;
2021/08/14 04:40:28;;;;;;;9.6;6.1;;;;;;;19.3;100;98960.03;;;;
2021/08/14 04:50:28;;;;;;;6.1;4.4;;;;;;;19.8;100;98957.26;;;;
2021/08/14 05:00:28;;;;;;;8.6;5.9;;;;;;;19.93;100;98968.84;;;;
2021/08/14 05:10:28;;;;;;;8.9;7.6;;;;;;;19.85;100;98965.19;;;;
2021/08/14 05:20:28;;;;;;;9.7;8.5;;;;;;;20.16;100;98974.4;;;;
2021/08/14 05:30:28;;;;;;;9.4;7.2;;;;;;;20.4;100;98985.87;;;;
2021/08/14 05:40:28;;;;;;;9.2;7.1;;;;;;;20.51;100;99000.52;;;;
2021/08/14 05:50:29;;;;;;;7.8;6.7;;;;;;;20.68;100;98999.3;;;;
2021/08/14 06:00:29;;;;;;;7.7;6.4;;;;;;;21.14;100;99005.56;;;;
2021/08/14 06:10:29;;;;;;;11.1;7.4;;;;;;;21.48;100;99006.52;;;;
2021/08/14 06:20:29;;;;;;;17.6;7.9;;;;;;;21.74;100;99016.67;;;;
2021/08/14 06:30:29;;;;;;;10.3;5.6;;;;;;;22.32;100;99014.33;;;;
2021/08/14 06:40:30;;;;;;;9.5;6;;;;;;;22.58;100;99028.75;;;;
2021/08/14 06:50:30;;;;;;;14.9;5.3;;;;;;;23.33;100;99023.96;;;;
2021/08/14 07:00:31;;;;;;;8.9;4.4;;;;;;;23.76;100;99028.63;;;;
2021/08/14 07:10:31;;;;;;;6.1;4.4;;;;;;;23.75;100;99027.04;;;;
2021/08/14 07:20:32;;;;;;;6.7;4.3;;;;;;;23.9;100;99036.18;;;;
2021/08/14 07:30:32;;;;;;;8.7;4.3;;;;;;;24.73;100;99025.11;;;;
2021/08/14 07:40:33;;;;;;;7.8;5.3;;;;;;;25.13;100;99030.3;;;;
2021/08/14 07:50:34;;;;;;;7.7;4.8;;;;;;;25.41;100;99032.28;;;;
2021/08/14 08:00:34;;;;;;;7.5;5.2;;;;;;;25.62;100;99024;;;;
2021/08/14 08:10:35;;;;;;;7.8;5.2;;;;;;;26.63;100;99018.53;;;;
2021/08/14 08:20:36;;;;;;;6.4;4.8;;;;;;;26.82;100;99015.3;;;;
2021/08/14 08:30:37;;;;;;;7.9;4.3;;;;;;;26.48;100;99011.53;;;;
2021/08/14 08:40:38;;;;;;;9.3;4.7;;;;;;;26.81;100;99005.39;;;;
2021/08/14 08:50:39;;;;;;;6.5;4.3;;;;;;;27.37;100;99008.94;;;;
2021/08/14 09:00:41;;;;;;;9.5;5.1;;;;;;;26.92;100;99010.88;;;;
2021/08/14 09:10:42;;;;;;;11.9;7;;;;;;;27.12;100;99002.81;;;;
2021/08/14 09:20:43;;;;;;;9.1;6;;;;;;;27.66;100;99001.97;;;;
2021/08/14 09:30:44;;;;;;;8.9;5;;;;;;;27.56;100;98997.3;;;;
2021/08/14 09:40:45;;;;;;;7.8;5.1;;;;;;;27.7;100;98999.17;;;;
2021/08/14 09:50:46;;;;;;;7.8;5.6;;;;;;;27.77;100;98985.2;;;;
2021/08/14 10:00:47;;;;;;;10.3;7.8;;;;;;;27.83;100;98981.6;;;;
2021/08/14 10:10:49;;;;;;;10.3;7.2;;;;;;;28.35;100;98975.84;;;;
2021/08/14 10:20:50;;;;;;;10.3;7.6;;;;;;;28.44;100;98968.57;;;;
2021/08/14 10:30:53;;;;;;;8.8;7.4;;;;;;;28.54;100;98958.52;;;;
2021/08/14 10:40:52;;;;;;;10.7;5.9;;;;;;;28.97;100;98962.25;;;;
2021/08/14 10:51:02;;;;;;;11.8;7.1;;;;;;;28.88;100;98939;;;;
2021/08/14 11:00:55;;;;;;;10.4;7.7;;;;;;;29.45;100;98924.95;;;;
2021/08/14 11:10:56;;;;;;;11.3;8.2;;;;;;;29.24;100;98914.2;;;;
2021/08/14 11:20:57;;;;;;;11.8;7;;;;;;;29.47;100;98909.41;;;;
2021/08/14 11:30:59;;;;;;;9.5;6.7;;;;;;;29.56;100;98908.08;;;;
2021/08/14 11:41:00;;;;;;;13;6.9;;;;;;;29.87;100;98901.13;;;;
2021/08/14 11:51:01;;;;;;;11.4;7.7;;;;;;;29.78;97.73438;98893.31;;;;
2021/08/14 12:01:03;;;;;;;8.9;5.6;;;;;;;29.84;94.4541;98883.31;;;;
2021/08/14 12:11:04;;;;;;;9.2;5.4;;;;;;;30.06;98.26172;98878.06;;;;
2021/08/14 12:21:05;;;;;;;13.2;6.6;;;;;;;30.04;95.33789;98871.37;;;;
2021/08/14 12:31:07;;;;;;;8.9;6.2;;;;;;;30.1;94.81055;98866.86;;;;
2021/08/14 12:41:08;;;;;;;15.5;7.3;;;;;;;30.2;96.43848;98863.08;;;;
2021/08/14 12:51:10;;;;;;;10;6.2;;;;;;;30.35;91.70605;98865.08;;;;
2021/08/14 13:01:11;;;;;;;11.6;6.7;;;;;;;30.38;89.4668;98864.22;;;;
2021/08/14 13:11:12;;;;;;;10.8;6.4;;;;;;;30.25;93.02344;98848.65;;;;
2021/08/14 13:21:14;;;;;;;9.9;6.4;;;;;;;30.42;89.5;98848.27;;;;
2021/08/14 13:31:15;;;;;;;7.6;5.8;;;;;;;30.32;87.83301;98845.7;;;;
2021/08/14 13:41:17;;;;;;;8.2;5.5;;;;;;;30.58;89.03711;98822.42;;;;
2021/08/14 13:51:18;;;;;;;9.8;6.6;;;;;;;31;83.88574;98828.16;;;;
2021/08/14 14:01:20;;;;;;;9.2;5.5;;;;;;;31.39;84.90137;98825.06;;;;
2021/08/14 14:11:22;;;;;;;10;6.6;;;;;;;30.56;84.67676;98812.95;;;;
2021/08/14 14:21:23;;;;;;;10.8;6.3;;;;;;;31.32;81.96191;98822.47;;;;
2021/08/14 14:31:24;;;;;;;10.2;6.1;;;;;;;31.39;82.80078;98825.06;;;;
2021/08/14 14:41:26;;;;;;;8.5;6.6;;;;;;;31.71;76.43848;98824.95;;;;
2021/08/14 14:51:27;;;;;;;10.5;6.5;;;;;;;31.63;75.96289;98822.8;;;;
2021/08/14 15:01:29;;;;;;;9.5;7.1;;;;;;;31.74;73.84961;98809.34;;;;
2021/08/14 15:11:30;;;;;;;11.4;7.3;;;;;;;31.53;76.5625;98805.18;;;;
2021/08/14 15:21:31;;;;;;;9.7;7.5;;;;;;;32.53;70.77051;98788.91;;;;
2021/08/14 15:31:33;;;;;;;8.3;6.6;;;;;;;34.31;61.24316;98785.5;;;;
2021/08/14 15:41:35;;;;;;;10.8;5.9;;;;;;;35.37;58.87793;98776.58;;;;
2021/08/14 15:51:37;;;;;;;10.1;5.8;;;;;;;36.13;53.39551;98770.6;;;;
2021/08/14 16:01:39;;;;;;;10.5;5.9;;;;;;;35.77;56.25195;98769.48;;;;
2021/08/14 16:11:41;;;;;;;9.9;6.1;;;;;;;36.76;53.78223;98758.97;;;;
2021/08/14 16:21:43;;;;;;;7.7;5.3;;;;;;;34.46;55.04883;98756.92;;;;
2021/08/14 16:31:45;;;;;;;10.4;6.6;;;;;;;32.33;63.75391;98759.27;;;;
2021/08/14 16:41:47;;;;;;;8.6;6.2;;;;;;;31.14;67.24023;98758.92;;;;
2021/08/14 16:51:49;;;;;;;10.2;7.3;;;;;;;30.25;74.3291;98749.33;;;;
2021/08/14 17:01:50;;;;;;;9.2;5.7;;;;;;;29.3;83.98633;98745.92;;;;
2021/08/14 17:11:51;;;;;;;12.2;7.9;;;;;;;28.53;84.17285;98746.2;;;;
2021/08/14 17:21:52;;;;;;;10.4;7.9;;;;;;;27.83;91.62109;98732.28;;;;
2021/08/14 17:31:54;;;;;;;14.1;7.9;;;;;;;26.92;97.16895;98731.48;;;;
2021/08/14 17:41:55;;;;;;;14.8;10.6;;;;;;;26.51;100;98729.53;;;;
2021/08/14 17:51:56;;;;;;;11.6;9.2;;;;;;;25.89;100;98724.09;;;;
2021/08/14 18:01:56;;;;;;;16.3;13.9;;;;;;;25.27;100;98720.53;;;;
2021/08/14 18:11:57;;;;;;;26.7;19.6;;;;;;;24.66;100;98714.41;;;;
2021/08/14 18:21:59;;;;;;;19.1;15.1;;;;;;;24.32;100;98718.81;;;;
2021/08/14 18:31:59;;;;;;;33.5;23.8;;;;;;;23.92;100;98719.95;;;;
2021/08/14 18:41:59;;;;;;;18.8;14.9;;;;;;;23.61;100;98727;;;;
2021/08/14 18:52:00;;;;;;;18.4;15.1;;;;;;;23.3;100;98720.22;;;;
2021/08/14 19:02:00;;;;;;;23.6;19.5;;;;;;;22.98;100;98717.34;;;;
2021/08/14 19:12:00;;;;;;;29.4;22;;;;;;;22.7;100;98717.2;;;;
2021/08/14 19:22:01;;;;;;;37.1;25.8;;;;;;;22.43;100;98713.09;;;;
2021/08/14 19:32:01;;;;;;;17.7;14.8;;;;;;;22.28;100;98708.69;;;;
2021/08/14 19:42:01;;;;;;;25.7;17.1;;;;;;;22.1;100;98710.51;;;;
2021/08/14 19:52:01;;;;;;;14.2;11.3;;;;;;;21.94;100;98711.55;;;;
2021/08/14 20:02:02;;;;;;;18.8;14.4;;;;;;;21.94;100;98706.06;;;;
2021/08/14 20:12:02;;;;;;;21;14.6;;;;;;;21.81;100;98693.77;;;;
2021/08/14 20:22:02;;;;;;;19;16.5;;;;;;;21.67;100;98701.88;;;;
2021/08/14 20:32:02;;;;;;;16.4;14.8;;;;;;;21.49;100;98701.7;;;;
2021/08/14 20:42:02;;;;;;;16.3;13.8;;;;;;;21.27;100;98696.38;;;;
2021/08/14 20:52:02;;;;;;;21.7;16.9;;;;;;;21.16;100;98692.73;;;;
2021/08/14 21:02:02;;;;;;;21.2;19;;;;;;;20.98;100;98695.23;;;;
2021/08/14 21:12:03;;;;;;;20.9;17.5;;;;;;;20.97;100;98701.86;;;;
2021/08/14 21:22:02;;;;;;;24.6;20.3;;;;;;;20.9;100;98688.08;;;;
2021/08/14 21:32:02;;;;;;;23.5;21.1;;;;;;;20.73;100;98685.91;;;;
2021/08/14 21:42:03;;;;;;;24.7;20.4;;;;;;;20.56;100;98679.04;;;;
2021/08/14 21:52:03;;;;;;;27.5;21.6;;;;;;;20.46;100;98675;;;;
2021/08/14 22:02:03;;;;;;;26.4;21.4;;;;;;;20.22;100;98669.94;;;;
2021/08/14 22:12:04;;;;;;;25.9;19;;;;;;;20.13;100;98663.16;;;;
2021/08/14 22:22:03;;;;;;;19.3;17.2;;;;;;;20.01;100;98661.41;;;;
2021/08/14 22:32:03;;;;;;;18.9;16.7;;;;;;;19.89;100;98653.38;;;;
2021/08/14 22:42:03;;;;;;;17.4;14.4;;;;;;;19.76;100;98652.8;;;;
2021/08/14 22:52:03;;;;;;;19.7;17.6;;;;;;;19.75;100;98648.48;;;;
2021/08/14 23:02:03;;;;;;;22.8;17.3;;;;;;;19.7;100;98650.74;;;;
2021/08/14 23:12:03;;;;;;;25.3;18.4;;;;;;;19.6;100;98641.22;;;;
2021/08/14 23:22:02;;;;;;;19.1;17.3;;;;;;;19.46;100;98640.98;;;;
2021/08/14 23:32:02;;;;;;;19.4;16.5;;;;;;;19.4;100;98643.17;;;;
2021/08/14 23:42:02;;;;;;;19.4;17.4;;;;;;;19.27;100;98646.44;;;;
2021/08/14 23:52:02;;;;;;;15.8;14.1;;;;;;;19.14;100;98639.58;;;;
